Time,TemperatureF,DewpointF,PressureIn,WindDirection,WindDirectionDegrees,WindSpeedMPH,WindSpeedGustMPH,Humidity,HourlyPrecipIn,Conditions,Clouds,dailyrainin,SoftwareType,DateUTC
2013-03-11 00:15:00,24.1,19.4,29.82,South,180,2.2,-999.0,82,-99.99,,,0.00,Acu-Link.com,2013-03-11 05:15:00,
2013-03-11 00:30:00,24.1,19.1,29.81,NNW,337,3.2,-999.0,81,-99.99,,,0.00,Acu-Link.com,2013-03-11 05:30:00,
2013-03-11 00:45:00,23.9,18.6,29.81,SE,135,6.3,-999.0,80,-99.99,,,0.00,Acu-Link.com,2013-03-11 05:45:00,
2013-03-11 01:00:00,23.9,18.4,29.81,WNW,292,5.3,-999.0,79,-99.99,,,0.00,Acu-Link.com,2013-03-11 06:00:00,
2013-03-11 01:15:00,23.7,18.2,29.80,ESE,112,3.7,-999.0,79,-99.99,,,0.00,Acu-Link.com,2013-03-11 06:15:00,
2013-03-11 01:31:00,23.7,18.2,29.79,NNW,337,3.2,-999.0,79,-99.99,,,0.00,Acu-Link.com,2013-03-11 06:31:00,
2013-03-11 01:46:00,23.7,18.2,29.79,East,90,3.7,-999.0,79,-99.99,,,0.00,Acu-Link.com,2013-03-11 06:46:00,
2013-03-11 02:01:00,22.8,17.9,29.79,ENE,67,2.2,-999.0,81,-99.99,,,0.00,Acu-Link.com,2013-03-11 07:01:00,
2013-03-11 02:16:00,21.9,17.3,29.79,NE,45,2.7,-999.0,82,-99.99,,,0.00,Acu-Link.com,2013-03-11 07:16:00,
2013-03-11 02:32:00,21.4,17.1,29.79,South,180,1.7,-999.0,83,-99.99,,,0.00,Acu-Link.com,2013-03-11 07:32:00,
2013-03-11 02:47:00,21.2,16.9,29.78,SSE,157,1.7,-999.0,83,-99.99,,,0.00,Acu-Link.com,2013-03-11 07:47:00,
2013-03-11 03:02:00,21.0,16.7,29.78,SE,135,1.7,-999.0,83,-99.99,,,0.00,Acu-Link.com,2013-03-11 08:02:00,
2013-03-11 03:17:00,21.0,16.7,29.78,ESE,112,1.1,-999.0,83,-99.99,,,0.00,Acu-Link.com,2013-03-11 08:17:00,
2013-03-11 03:33:00,21.0,16.7,29.77,SE,135,1.7,-999.0,83,-99.99,,,0.00,Acu-Link.com,2013-03-11 08:33:00,
2013-03-11 03:48:00,21.0,16.7,29.76,WSW,247,1.7,-999.0,83,-99.99,,,0.00,Acu-Link.com,2013-03-11 08:48:00,
2013-03-11 04:03:00,21.0,16.7,29.76,West,270,2.2,-999.0,83,-99.99,,,0.00,Acu-Link.com,2013-03-11 09:03:00,
2013-03-11 04:18:00,20.7,16.4,29.75,NNE,22,2.2,-999.0,83,-99.99,,,0.00,Acu-Link.com,2013-03-11 09:18:00,
2013-03-11 04:33:00,20.5,16.2,29.75,ENE,67,2.7,-999.0,83,-99.99,,,0.00,Acu-Link.com,2013-03-11 09:33:00,
2013-03-11 04:48:00,20.3,16.0,29.75,NNE,22,1.7,-999.0,83,-99.99,,,0.00,Acu-Link.com,2013-03-11 09:48:00,
2013-03-11 05:04:00,20.1,15.8,29.75,SSE,157,1.1,-999.0,83,-99.99,,,0.00,Acu-Link.com,2013-03-11 10:04:00,
2013-03-11 05:19:00,19.9,15.6,29.75,NNE,22,2.2,-999.0,83,-99.99,,,0.00,Acu-Link.com,2013-03-11 10:19:00,
2013-03-11 05:34:00,19.9,15.6,29.75,SSW,202,3.7,-999.0,83,-99.99,,,0.00,Acu-Link.com,2013-03-11 10:34:00,
2013-03-11 05:49:00,19.9,15.6,29.74,NW,315,1.1,-999.0,83,-99.99,,,0.00,Acu-Link.com,2013-03-11 10:49:00,
2013-03-11 06:04:00,19.9,15.6,29.74,SE,135,1.1,-999.0,83,-99.99,,,0.00,Acu-Link.com,2013-03-11 11:04:00,
2013-03-11 06:20:00,19.8,15.5,29.74,SSE,157,1.7,-999.0,83,-99.99,,,0.00,Acu-Link.com,2013-03-11 11:20:00,
2013-03-11 06:35:00,19.4,14.8,29.73,NNW,337,1.7,-999.0,82,-99.99,,,0.00,Acu-Link.com,2013-03-11 11:35:00,
2013-03-11 06:50:00,18.3,13.7,29.74,WNW,292,4.7,-999.0,82,-99.99,,,0.00,Acu-Link.com,2013-03-11 11:50:00,
2013-03-11 07:05:00,17.4,12.9,29.74,NW,315,1.7,-999.0,82,-99.99,,,0.00,Acu-Link.com,2013-03-11 12:05:00,
2013-03-11 07:21:00,17.2,12.7,29.74,NNE,22,1.1,-999.0,82,-99.99,,,0.00,Acu-Link.com,2013-03-11 12:21:00,
2013-03-11 07:51:00,17.1,12.8,29.73,ESE,112,2.2,-999.0,83,-99.99,,,0.00,Acu-Link.com,2013-03-11 12:51:00,
2013-03-11 08:21:00,17.4,13.1,29.72,NE,45,1.1,-999.0,83,-99.99,,,0.00,Acu-Link.com,2013-03-11 13:21:00,
2013-03-11 08:37:00,17.8,13.5,29.73,WNW,292,3.2,-999.0,83,-99.99,,,0.00,Acu-Link.com,2013-03-11 13:37:00,
2013-03-11 08:52:00,18.3,13.7,29.73,NW,315,1.1,-999.0,82,-99.99,,,0.00,Acu-Link.com,2013-03-11 13:52:00,
2013-03-11 09:22:00,19.8,14.6,29.73,NE,45,0.0,-999.0,80,-99.99,,,0.00,Acu-Link.com,2013-03-11 14:22:00,
2013-03-11 09:37:00,21.4,15.6,29.72,North,0,0.0,-999.0,78,-99.99,,,0.00,Acu-Link.com,2013-03-11 14:37:00,
2013-03-11 09:53:00,22.6,16.2,29.72,West,270,2.2,-999.0,76,-99.99,,,0.00,Acu-Link.com,2013-03-11 14:53:00,
2013-03-11 10:08:00,23.7,17.0,29.72,NE,45,1.7,-999.0,75,-99.99,,,0.00,Acu-Link.com,2013-03-11 15:08:00,
2013-03-11 10:23:00,25.3,17.9,29.71,NNE,22,1.1,-999.0,73,-99.99,,,0.00,Acu-Link.com,2013-03-11 15:23:00,
2013-03-11 10:38:00,23.0,16.6,29.71,NE,45,0.0,-999.0,76,-99.99,,,0.00,Acu-Link.com,2013-03-11 15:38:00,
2013-03-11 10:53:00,23.2,16.8,29.71,South,180,1.1,-999.0,76,-99.99,,,0.00,Acu-Link.com,2013-03-11 15:53:00,
2013-03-11 11:09:00,23.9,17.2,29.71,NE,45,1.7,-999.0,75,-99.99,,,0.00,Acu-Link.com,2013-03-11 16:09:00,
2013-03-11 11:24:00,24.4,17.6,29.71,East,90,1.7,-999.0,75,-99.99,,,0.00,Acu-Link.com,2013-03-11 16:24:00,
2013-03-11 11:39:00,25.0,17.9,29.71,WSW,247,2.2,-999.0,74,-99.99,,,0.00,Acu-Link.com,2013-03-11 16:39:00,
2013-03-11 11:54:00,24.8,17.7,29.70,NNE,22,3.7,-999.0,74,-99.99,,,0.00,Acu-Link.com,2013-03-11 16:54:00,
2013-03-11 12:09:00,25.0,17.9,29.70,South,180,3.2,-999.0,74,-99.99,,,0.00,Acu-Link.com,2013-03-11 17:09:00,
2013-03-11 12:25:00,25.9,18.5,29.70,West,270,2.7,-999.0,73,-99.99,,,0.00,Acu-Link.com,2013-03-11 17:25:00,
2013-03-11 12:40:00,26.1,18.7,29.69,ENE,67,1.7,-999.0,73,-99.99,,,0.00,Acu-Link.com,2013-03-11 17:40:00,
2013-03-11 12:55:00,27.3,19.8,29.69,WNW,292,2.2,-999.0,73,-99.99,,,0.00,Acu-Link.com,2013-03-11 17:55:00,
2013-03-11 13:10:00,27.3,19.5,29.68,SW,225,1.7,-999.0,72,-99.99,,,0.01,Acu-Link.com,2013-03-11 18:10:00,
2013-03-11 13:26:00,27.1,19.0,29.67,North,0,3.2,-999.0,71,-99.99,,,0.01,Acu-Link.com,2013-03-11 18:26:00,
2013-03-11 13:41:00,27.3,19.5,29.67,West,270,2.7,-999.0,72,-99.99,,,0.01,Acu-Link.com,2013-03-11 18:41:00,
2013-03-11 14:26:00,26.6,18.5,29.65,West,270,2.2,-999.0,71,-99.99,,,0.01,Acu-Link.com,2013-03-11 19:26:00,
2013-03-11 14:42:00,26.8,18.7,29.65,NNE,22,4.2,-999.0,71,-99.99,,,0.01,Acu-Link.com,2013-03-11 19:42:00,
2013-03-11 14:57:00,26.8,18.7,29.64,WNW,292,2.2,-999.0,71,-99.99,,,0.01,Acu-Link.com,2013-03-11 19:57:00,
2013-03-11 15:12:00,27.1,19.0,29.65,NNW,337,2.7,-999.0,71,-99.99,,,0.01,Acu-Link.com,2013-03-11 20:12:00,
2013-03-11 15:27:00,26.4,18.3,29.65,NNW,337,3.7,-999.0,71,-99.99,,,0.01,Acu-Link.com,2013-03-11 20:27:00,
2013-03-11 15:42:00,26.1,17.3,29.65,WSW,247,2.2,-999.0,69,-99.99,,,0.01,Acu-Link.com,2013-03-11 20:42:00,
2013-03-11 15:58:00,26.1,17.3,29.66,ESE,112,4.2,-999.0,69,-99.99,,,0.01,Acu-Link.com,2013-03-11 20:58:00,
2013-03-11 16:13:00,25.5,17.1,29.66,West,270,3.2,-999.0,70,-99.99,,,0.01,Acu-Link.com,2013-03-11 21:13:00,
2013-03-11 16:28:00,25.5,17.8,29.66,NNE,22,2.7,-999.0,72,-99.99,,,0.01,Acu-Link.com,2013-03-11 21:28:00,
2013-03-11 16:43:00,26.2,17.4,29.66,WSW,247,2.7,-999.0,69,-99.99,,,0.01,Acu-Link.com,2013-03-11 21:43:00,
2013-03-11 16:58:00,25.9,17.5,29.66,ESE,112,2.7,-999.0,70,-99.99,,,0.01,Acu-Link.com,2013-03-11 21:58:00,
2013-03-11 17:14:00,25.9,17.5,29.66,WSW,247,4.7,-999.0,70,-99.99,,,0.01,Acu-Link.com,2013-03-11 22:14:00,
2013-03-11 17:29:00,26.2,17.4,29.65,ESE,112,3.2,-999.0,69,-99.99,,,0.01,Acu-Link.com,2013-03-11 22:29:00,
2013-03-11 17:44:00,25.5,17.1,29.66,SSE,157,2.2,-999.0,70,-99.99,,,0.01,Acu-Link.com,2013-03-11 22:44:00,
2013-03-11 17:59:00,25.3,17.2,29.67,North,0,2.7,-999.0,71,-99.99,,,0.01,Acu-Link.com,2013-03-11 22:59:00,
2013-03-11 18:15:00,24.8,16.8,29.67,WNW,292,4.7,-999.0,71,-99.99,,,0.01,Acu-Link.com,2013-03-11 23:15:00,
2013-03-11 18:30:00,25.0,16.9,29.68,East,90,2.7,-999.0,71,-99.99,,,0.01,Acu-Link.com,2013-03-11 23:30:00,
2013-03-11 18:45:00,25.0,16.6,29.68,NE,45,1.7,-999.0,70,-99.99,,,0.01,Acu-Link.com,2013-03-11 23:45:00,
2013-03-11 19:00:00,23.9,15.6,29.68,SW,225,3.2,-999.0,70,-99.99,,,0.01,Acu-Link.com,2013-03-12 00:00:00,
2013-03-11 19:15:00,23.0,15.3,29.68,SW,225,3.7,-999.0,72,-99.99,,,0.01,Acu-Link.com,2013-03-12 00:15:00,
2013-03-11 19:31:00,22.5,15.5,29.68,North,0,2.7,-999.0,74,-99.99,,,0.01,Acu-Link.com,2013-03-12 00:31:00,
2013-03-11 19:46:00,21.7,14.7,29.68,SSW,202,1.7,-999.0,74,-99.99,,,0.01,Acu-Link.com,2013-03-12 00:46:00,
2013-03-11 20:01:00,21.4,14.1,29.69,West,270,2.2,-999.0,73,-99.99,,,0.01,Acu-Link.com,2013-03-12 01:01:00,
2013-03-11 20:31:00,20.8,12.9,29.69,West,270,1.1,-999.0,71,-99.99,,,0.01,Acu-Link.com,2013-03-12 01:31:00,
2013-03-11 20:47:00,20.8,13.2,29.69,SW,225,3.2,-999.0,72,-99.99,,,0.01,Acu-Link.com,2013-03-12 01:47:00,
2013-03-11 21:02:00,20.8,13.2,29.70,SW,225,1.7,-999.0,72,-99.99,,,0.01,Acu-Link.com,2013-03-12 02:02:00,
2013-03-11 21:17:00,20.5,13.2,29.70,WNW,292,1.7,-999.0,73,-99.99,,,0.01,Acu-Link.com,2013-03-12 02:17:00,
2013-03-11 21:32:00,20.5,13.2,29.70,SW,225,3.7,-999.0,73,-99.99,,,0.01,Acu-Link.com,2013-03-12 02:32:00,
2013-03-11 21:47:00,20.5,13.2,29.70,SW,225,2.7,-999.0,73,-99.99,,,0.01,Acu-Link.com,2013-03-12 02:47:00,
2013-03-11 22:03:00,20.5,12.9,29.70,SW,225,3.2,-999.0,72,-99.99,,,0.01,Acu-Link.com,2013-03-12 03:03:00,
2013-03-11 22:18:00,20.5,13.2,29.71,SSE,157,0.0,-999.0,73,-99.99,,,0.01,Acu-Link.com,2013-03-12 03:18:00,
2013-03-11 22:33:00,20.3,13.1,29.71,West,270,4.2,-999.0,73,-99.99,,,0.01,Acu-Link.com,2013-03-12 03:33:00,
2013-03-11 22:48:00,20.1,13.2,29.71,SW,225,2.7,-999.0,74,-99.99,,,0.01,Acu-Link.com,2013-03-12 03:48:00,
2013-03-11 23:03:00,19.9,13.0,29.71,SSE,157,2.2,-999.0,74,-99.99,,,0.01,Acu-Link.com,2013-03-12 04:03:00,
2013-03-11 23:19:00,19.9,13.3,29.71,SSE,157,2.7,-999.0,75,-99.99,,,0.01,Acu-Link.com,2013-03-12 04:19:00,
2013-03-11 23:34:00,19.9,13.6,29.70,WSW,247,2.7,-999.0,76,-99.99,,,0.01,Acu-Link.com,2013-03-12 04:34:00,
2013-03-11 23:49:00,19.9,13.9,29.70,South,180,3.7,-999.0,77,-99.99,,,0.01,Acu-Link.com,2013-03-12 04:49:00,